Time;durP1;ratioP1;P1;durP2;ratioP2;P2;SDS_P1;SDS_P2;PMS_P1;PMS_P2;Temp;Humidity;BMP_temperature;BMP_pressure;BME280_temperature;BME280_humidity;BME280_pressure;Samples;Min_cycle;Max_cycle;Signal;HPM_P1;HPM_P2
2024/01/04 00:01:13;;;;;;;6.07;1.93;;;8.10;99.90;;;;;;4764218;30;20192;-82
2024/01/04 00:03:40;;;;;;;4.80;2.50;;;8.00;99.90;;;;;;4765868;30;20200;-83
2024/01/04 00:06:06;;;;;;;2.90;2.03;;;8.00;99.90;;;;;;4771205;30;20203;-83
2024/01/04 00:08:34;;;;;;;5.17;2.37;;;8.00;99.90;;;;;;4772551;30;20208;-84
2024/01/04 00:11:07;;;;;;;4.50;2.30;;;7.90;99.90;;;;;;4768816;30;20191;-82
2024/01/04 00:13:33;;;;;;;3.93;2.20;;;7.90;99.90;;;;;;4768012;30;20595;-82
2024/01/04 00:15:59;;;;;;;5.35;1.90;;;7.90;99.90;;;;;;4772415;30;20191;-85
2024/01/04 00:18:25;;;;;;;7.47;1.80;;;7.90;99.90;;;;;;4768149;30;20244;-81
2024/01/04 00:20:51;;;;;;;3.20;2.03;;;7.90;99.90;;;;;;4763779;30;20279;-82
2024/01/04 00:23:17;;;;;;;5.17;1.90;;;7.90;99.90;;;;;;4766970;30;20193;-82
2024/01/04 00:25:43;;;;;;;5.73;2.10;;;7.90;99.90;;;;;;4764925;30;20188;-81
2024/01/04 00:28:08;;;;;;;4.00;1.87;;;7.80;99.90;;;;;;4770739;30;20579;-82
2024/01/04 00:30:35;;;;;;;3.63;1.67;;;7.80;99.90;;;;;;4772356;30;20644;-82
2024/01/04 00:33:00;;;;;;;3.37;1.60;;;7.80;99.90;;;;;;4770973;30;20192;-81
2024/01/04 00:35:26;;;;;;;2.80;1.30;;;7.80;99.90;;;;;;4772092;30;20192;-82
2024/01/04 00:37:53;;;;;;;4.40;1.50;;;7.70;99.90;;;;;;4771968;30;20263;-82
2024/01/04 00:40:18;;;;;;;3.10;1.30;;;7.70;99.90;;;;;;4770535;30;20207;-83
2024/01/04 00:42:44;;;;;;;2.60;1.33;;;7.70;99.90;;;;;;4787624;30;20317;-82
2024/01/04 00:45:10;;;;;;;3.77;1.00;;;7.70;99.90;;;;;;4773737;30;20204;-83
2024/01/04 00:47:36;;;;;;;0.83;0.80;;;7.70;99.90;;;;;;4782442;30;20211;-82
2024/01/04 00:50:02;;;;;;;4.87;1.03;;;7.70;99.90;;;;;;4773477;30;20207;-82
2024/01/04 00:52:27;;;;;;;2.30;0.90;;;7.70;99.90;;;;;;4773674;30;20226;-82
2024/01/04 00:54:56;;;;;;;2.90;0.70;;;7.60;99.90;;;;;;4769272;30;20200;-83
2024/01/04 00:57:21;;;;;;;1.10;0.73;;;7.60;99.90;;;;;;4772863;30;20221;-82
2024/01/04 00:59:47;;;;;;;1.60;0.80;;;7.60;99.90;;;;;;4789525;30;20199;-82
2024/01/04 01:02:13;;;;;;;2.57;0.80;;;7.50;99.90;;;;;;4789696;30;20252;-82
2024/01/04 01:04:39;;;;;;;1.40;0.80;;;7.50;99.90;;;;;;4773499;30;20293;-82
2024/01/04 01:07:04;;;;;;;1.20;0.70;;;7.50;99.90;;;;;;4789338;29;20191;-82
2024/01/04 01:09:30;;;;;;;0.83;0.60;;;7.50;99.90;;;;;;4773277;30;20195;-82
2024/01/04 01:11:56;;;;;;;2.20;0.80;;;7.50;99.90;;;;;;4765715;30;20661;-83
2024/01/04 01:14:22;;;;;;;1.93;0.60;;;7.40;99.90;;;;;;4789536;30;20179;-82
2024/01/04 01:16:48;;;;;;;1.10;0.60;;;7.40;99.90;;;;;;4772879;30;20263;-83
2024/01/04 01:19:14;;;;;;;2.90;0.60;;;7.50;99.90;;;;;;4789357;29;20274;-83
2024/01/04 01:21:41;;;;;;;1.13;0.77;;;7.50;99.90;;;;;;4789444;30;20180;-81
2024/01/04 01:24:07;;;;;;;2.27;0.87;;;7.50;99.90;;;;;;4788637;29;20187;-82
2024/01/04 01:26:32;;;;;;;4.63;1.40;;;7.40;99.90;;;;;;4784405;30;20274;-83
2024/01/04 01:28:58;;;;;;;3.90;1.10;;;7.40;99.90;;;;;;4788984;30;20615;-83
2024/01/04 01:31:24;;;;;;;4.50;1.10;;;7.40;99.90;;;;;;4784012;30;20624;-84
2024/01/04 01:33:50;;;;;;;2.40;1.00;;;7.40;99.90;;;;;;4771244;30;20619;-83
2024/01/04 01:36:15;;;;;;;2.00;1.30;;;7.40;99.90;;;;;;4772952;30;20616;-83
2024/01/04 01:38:41;;;;;;;4.03;1.50;;;7.40;99.90;;;;;;4772855;30;20333;-83
2024/01/04 01:41:07;;;;;;;3.93;1.80;;;7.40;99.90;;;;;;4788328;29;20695;-83
2024/01/04 01:43:33;;;;;;;3.53;1.80;;;7.40;99.90;;;;;;4772621;30;20651;-82
2024/01/04 01:45:59;;;;;;;4.17;1.50;;;7.50;99.90;;;;;;4786814;30;20199;-83
2024/01/04 01:48:24;;;;;;;2.60;1.40;;;7.40;99.90;;;;;;4783458;30;20240;-83
2024/01/04 01:50:51;;;;;;;3.03;1.60;;;7.40;99.90;;;;;;4765196;30;20192;-82
2024/01/04 01:53:16;;;;;;;3.70;1.97;;;7.50;99.90;;;;;;4789133;30;20187;-83
2024/01/04 01:55:42;;;;;;;5.27;1.87;;;7.40;99.90;;;;;;4765143;30;20191;-83
2024/01/04 01:58:08;;;;;;;2.93;2.20;;;7.40;99.90;;;;;;4765310;30;20199;-83
2024/01/04 02:00:37;;;;;;;5.10;1.80;;;7.40;99.90;;;;;;4789104;30;20197;-84
2024/01/04 02:03:05;;;;;;;7.53;2.20;;;7.50;99.90;;;;;;4772605;30;20199;-83
2024/01/04 02:05:31;;;;;;;3.40;1.87;;;7.50;99.90;;;;;;4772809;30;20183;-83
2024/01/04 02:07:57;;;;;;;3.57;1.63;;;7.50;99.90;;;;;;4770090;30;20235;-82
2024/01/04 02:10:23;;;;;;;4.23;1.97;;;7.50;99.90;;;;;;4777797;30;20218;-82
2024/01/04 02:12:49;;;;;;;3.57;2.07;;;7.40;99.90;;;;;;4769531;30;20636;-83
2024/01/04 02:15:15;;;;;;;9.00;2.40;;;7.50;99.90;;;;;;4781980;30;20244;-82
2024/01/04 02:17:41;;;;;;;7.67;2.50;;;7.50;99.90;;;;;;4772355;30;20279;-83
2024/01/04 02:20:08;;;;;;;2.47;1.90;;;7.50;99.90;;;;;;4772312;30;20198;-83
2024/01/04 02:22:44;;;;;;;4.47;2.00;;;7.50;99.90;;;;;;4772381;30;20191;-83
2024/01/04 02:25:10;;;;;;;6.63;1.97;;;7.50;99.90;;;;;;4773911;30;20255;-83
2024/01/04 02:27:35;;;;;;;4.47;1.90;;;7.50;99.90;;;;;;4771966;30;20214;-84
2024/01/04 02:30:01;;;;;;;3.33;2.00;;;7.40;99.90;;;;;;4788358;30;20624;-83
2024/01/04 02:32:27;;;;;;;3.27;2.00;;;7.40;99.90;;;;;;4772496;30;20191;-83
2024/01/04 02:34:53;;;;;;;5.63;2.27;;;7.50;99.90;;;;;;4788365;29;20244;-84
2024/01/04 02:37:19;;;;;;;3.20;2.00;;;7.50;99.90;;;;;;4787704;29;20495;-83
2024/01/04 02:39:44;;;;;;;4.73;2.00;;;7.50;99.90;;;;;;4788326;29;20563;-83
2024/01/04 02:42:10;;;;;;;5.60;1.93;;;7.50;99.90;;;;;;4788054;29;20662;-83
2024/01/04 02:44:36;;;;;;;3.40;2.03;;;7.50;99.90;;;;;;4788400;30;20188;-83
2024/01/04 02:47:02;;;;;;;4.13;1.77;;;7.50;99.90;;;;;;4785764;29;20208;-83
2024/01/04 02:49:29;;;;;;;4.53;2.30;;;7.50;99.90;;;;;;4761382;30;20759;-83
2024/01/04 02:51:55;;;;;;;3.30;1.90;;;7.50;99.90;;;;;;4777316;30;20702;-82
2024/01/04 02:54:21;;;;;;;3.23;1.80;;;7.50;99.90;;;;;;4761462;30;20571;-84
2024/01/04 02:56:46;;;;;;;6.73;1.97;;;7.50;99.90;;;;;;4784679;30;20198;-82
2024/01/04 02:59:12;;;;;;;2.80;2.03;;;7.50;99.90;;;;;;4787573;30;20183;-83
2024/01/04 03:01:38;;;;;;;3.73;1.83;;;7.50;99.90;;;;;;4787801;29;20679;-83
2024/01/04 03:04:04;;;;;;;3.67;1.87;;;7.60;99.90;;;;;;4780492;30;20183;-83
2024/01/04 03:06:30;;;;;;;4.23;2.00;;;7.60;99.90;;;;;;4771626;30;20231;-83
2024/01/04 03:08:56;;;;;;;5.03;2.03;;;7.60;99.90;;;;;;4771511;30;20678;-83
2024/01/04 03:11:22;;;;;;;5.30;2.00;;;7.60;99.90;;;;;;4771400;30;20604;-86
2024/01/04 03:13:48;;;;;;;3.40;2.03;;;7.60;99.90;;;;;;4770873;30;20328;-83
2024/01/04 03:16:14;;;;;;;6.27;2.43;;;7.60;99.90;;;;;;4761222;30;20268;-83
2024/01/04 03:18:40;;;;;;;5.43;2.53;;;7.60;99.90;;;;;;4768478;30;20191;-81
2024/01/04 03:21:06;;;;;;;5.90;2.37;;;7.60;99.90;;;;;;4774304;30;20202;-83
2024/01/04 03:23:32;;;;;;;3.63;2.37;;;7.60;99.90;;;;;;4775480;30;20226;-83
2024/01/04 03:25:58;;;;;;;4.67;2.17;;;7.50;99.90;;;;;;4786310;30;20713;-83
2024/01/04 03:28:24;;;;;;;3.27;1.90;;;7.50;99.90;;;;;;4774777;30;20226;-83
2024/01/04 03:30:49;;;;;;;4.37;1.97;;;7.40;99.90;;;;;;4783634;30;20523;-83
2024/01/04 03:33:15;;;;;;;4.57;1.70;;;7.40;99.90;;;;;;4791029;30;20658;-84
2024/01/04 03:35:41;;;;;;;5.10;1.60;;;7.30;99.90;;;;;;4783602;29;20702;-83
2024/01/04 03:38:07;;;;;;;2.20;1.37;;;7.40;99.90;;;;;;4791730;29;20734;-83
2024/01/04 03:40:33;;;;;;;2.97;1.60;;;7.40;99.90;;;;;;4774796;30;20214;-83
2024/01/04 03:42:58;;;;;;;4.40;1.47;;;7.40;99.90;;;;;;4774785;30;20768;-83
2024/01/04 03:45:25;;;;;;;2.07;1.07;;;7.40;99.90;;;;;;4774794;30;20202;-84
2024/01/04 03:47:51;;;;;;;4.17;1.57;;;7.40;99.90;;;;;;4790758;29;20219;-82
2024/01/04 03:50:17;;;;;;;2.07;1.20;;;7.40;99.90;;;;;;4786819;29;20263;-83
2024/01/04 03:52:43;;;;;;;2.27;1.07;;;7.40;99.90;;;;;;4771515;30;20285;-83
2024/01/04 03:55:09;;;;;;;1.23;1.03;;;7.40;99.90;;;;;;4767220;30;20266;-84
2024/01/04 03:57:35;;;;;;;2.63;1.30;;;7.50;99.90;;;;;;4770174;30;20195;-83
2024/01/04 04:00:01;;;;;;;2.53;1.33;;;7.50;99.90;;;;;;5108124;24;20729;-84
2024/01/04 04:02:27;;;;;;;2.13;0.97;;;7.60;99.90;;;;;;4764625;30;20355;-83
2024/01/04 04:04:56;;;;;;;1.67;0.90;;;7.60;99.90;;;;;;4774354;30;20227;-84
2024/01/04 04:07:23;;;;;;;1.30;0.77;;;7.50;99.90;;;;;;4774402;30;20195;-83
2024/01/04 04:09:49;;;;;;;1.10;0.70;;;7.50;99.90;;;;;;4773970;30;20204;-83
2024/01/04 04:12:14;;;;;;;2.37;0.90;;;7.50;99.90;;;;;;4767657;30;20198;-83
2024/01/04 04:14:43;;;;;;;2.60;0.90;;;7.60;99.90;;;;;;4766078;30;20538;-83
2024/01/04 04:17:09;;;;;;;1.37;1.00;;;7.60;99.90;;;;;;4759725;30;20199;-84
2024/01/04 04:19:35;;;;;;;3.67;0.90;;;7.60;99.90;;;;;;4774127;30;20538;-84
2024/01/04 04:22:01;;;;;;;1.40;0.80;;;7.60;99.90;;;;;;4774262;30;20228;-84
2024/01/04 04:24:27;;;;;;;2.17;1.10;;;7.60;99.90;;;;;;4774418;30;20290;-83
2024/01/04 04:26:53;;;;;;;3.80;1.33;;;7.50;99.90;;;;;;4773689;30;20209;-83
2024/01/04 04:29:19;;;;;;;2.50;1.07;;;7.40;99.90;;;;;;4766897;30;20223;-84
2024/01/04 04:31:47;;;;;;;3.53;1.20;;;7.30;99.90;;;;;;4767952;30;20191;-83
2024/01/04 04:34:13;;;;;;;3.50;1.00;;;7.20;99.90;;;;;;4774398;30;20203;-84
2024/01/04 04:36:40;;;;;;;1.00;0.90;;;7.10;99.90;;;;;;4774089;30;20206;-86
2024/01/04 04:39:07;;;;;;;1.83;1.00;;;6.90;99.90;;;;;;4773999;30;20231;-86
2024/01/04 04:41:33;;;;;;;0.80;0.80;;;6.90;99.90;;;;;;4774094;30;20203;-84
2024/01/04 04:43:58;;;;;;;3.47;1.00;;;6.90;99.90;;;;;;4773883;30;20195;-86
2024/01/04 04:46:25;;;;;;;1.77;0.90;;;6.90;99.90;;;;;;4766714;30;20195;-83
2024/01/04 04:48:55;;;;;;;1.50;1.00;;;6.90;99.90;;;;;;4773785;30;20223;-83
2024/01/04 04:51:22;;;;;;;1.60;1.00;;;6.80;99.90;;;;;;4773644;30;20225;-83
2024/01/04 04:53:48;;;;;;;2.23;0.90;;;6.90;99.90;;;;;;4773621;30;20225;-87
2024/01/04 04:56:14;;;;;;;1.70;0.80;;;6.90;99.90;;;;;;4773624;30;20258;-84
2024/01/04 04:58:40;;;;;;;0.80;0.60;;;6.80;99.90;;;;;;4773263;30;20202;-84
2024/01/04 05:01:08;;;;;;;0.90;0.50;;;6.60;99.90;;;;;;4770039;30;20236;-84
2024/01/04 05:03:34;;;;;;;1.87;0.50;;;6.30;99.90;;;;;;4764618;30;20642;-85
2024/01/04 05:06:00;;;;;;;0.93;0.40;;;6.10;99.90;;;;;;4770683;30;20205;-83
2024/01/04 05:08:26;;;;;;;2.30;0.53;;;5.90;99.90;;;;;;4770814;30;20563;-86
2024/01/04 05:10:52;;;;;;;1.90;0.70;;;5.80;99.90;;;;;;4770676;30;20228;-85
2024/01/04 05:13:17;;;;;;;1.30;0.70;;;5.70;99.90;;;;;;4766450;30;20208;-84
2024/01/04 05:15:43;;;;;;;1.83;0.57;;;5.70;99.90;;;;;;4767314;30;20196;-84
2024/01/04 05:18:09;;;;;;;1.80;0.80;;;5.60;99.90;;;;;;4771637;30;20643;-84
2024/01/04 05:20:35;;;;;;;2.90;0.80;;;5.50;99.90;;;;;;4770464;30;20195;-84
2024/01/04 05:23:01;;;;;;;2.70;0.93;;;5.50;99.90;;;;;;4770201;30;20199;-85
2024/01/04 05:25:27;;;;;;;4.83;1.03;;;5.50;99.90;;;;;;4770364;30;20210;-85
2024/01/04 05:27:53;;;;;;;1.73;1.00;;;5.50;99.90;;;;;;4770036;30;20223;-85
2024/01/04 05:30:19;;;;;;;1.37;0.90;;;5.50;99.90;;;;;;4769631;30;20278;-83
2024/01/04 05:32:45;;;;;;;3.40;1.07;;;5.50;99.90;;;;;;4759652;30;20196;-84
2024/01/04 05:35:11;;;;;;;2.40;1.23;;;5.50;99.90;;;;;;4770370;30;20192;-84
2024/01/04 05:37:38;;;;;;;3.10;1.20;;;5.50;99.90;;;;;;4770723;30;20226;-85
2024/01/04 05:40:05;;;;;;;3.23;1.10;;;5.50;99.90;;;;;;4770032;30;20211;-84
2024/01/04 05:42:30;;;;;;;1.80;1.30;;;5.50;99.90;;;;;;4770022;30;20188;-85
2024/01/04 05:44:56;;;;;;;4.03;1.30;;;5.50;99.90;;;;;;4762837;30;20219;-83
2024/01/04 05:47:22;;;;;;;3.73;1.47;;;5.50;99.90;;;;;;4769633;30;20204;-84
2024/01/04 05:49:48;;;;;;;2.93;1.17;;;5.50;99.90;;;;;;4769698;30;20204;-86
2024/01/04 05:52:13;;;;;;;1.97;1.17;;;5.50;99.90;;;;;;4771239;30;20745;-85
2024/01/04 05:54:39;;;;;;;3.33;1.00;;;5.50;99.90;;;;;;4771160;30;20256;-88
2024/01/04 05:57:06;;;;;;;1.57;0.93;;;5.40;99.90;;;;;;4769669;30;20223;-85
2024/01/04 05:59:32;;;;;;;2.57;1.00;;;5.50;99.90;;;;;;4771446;29;20204;-85
2024/01/04 06:01:57;;;;;;;1.47;0.90;;;5.50;99.90;;;;;;4772183;30;20210;-85
2024/01/04 06:04:23;;;;;;;1.97;0.90;;;5.50;99.90;;;;;;4772798;30;20203;-84
2024/01/04 06:06:49;;;;;;;2.00;0.80;;;5.60;99.90;;;;;;4772513;30;20191;-85
2024/01/04 06:09:20;;;;;;;4.67;0.93;;;5.60;99.90;;;;;;4772796;30;20701;-86
2024/01/04 06:11:46;;;;;;;1.07;0.50;;;5.50;99.90;;;;;;4772603;30;20191;-85
2024/01/04 06:14:13;;;;;;;1.10;0.60;;;5.60;99.90;;;;;;4772825;30;20545;-84
2024/01/04 06:16:38;;;;;;;4.00;0.70;;;5.50;99.90;;;;;;4772394;30;20646;-83
2024/01/04 06:19:04;;;;;;;2.20;0.70;;;5.50;99.90;;;;;;4788475;29;20195;-85
2024/01/04 06:21:30;;;;;;;1.50;0.70;;;5.60;99.90;;;;;;4772482;30;20199;-85
2024/01/04 06:23:59;;;;;;;2.83;0.77;;;5.50;99.90;;;;;;4772607;30;20198;-84
2024/01/04 06:26:25;;;;;;;2.10;0.60;;;5.50;99.90;;;;;;4788631;30;20197;-83
2024/01/04 06:28:51;;;;;;;1.20;0.50;;;5.40;99.90;;;;;;4772247;30;20227;-84
2024/01/04 06:31:16;;;;;;;1.03;0.53;;;5.40;99.90;;;;;;4771970;30;20200;-84
2024/01/04 06:33:42;;;;;;;2.10;0.70;;;5.40;99.90;;;;;;4772075;30;20199;-85
2024/01/04 06:36:08;;;;;;;2.70;0.67;;;5.40;99.90;;;;;;4771900;30;20199;-84
2024/01/04 06:38:35;;;;;;;2.43;0.60;;;5.40;99.90;;;;;;4772646;30;20222;-84
2024/01/04 06:41:03;;;;;;;3.10;0.70;;;5.50;99.90;;;;;;4772690;30;20203;-86
2024/01/04 06:43:30;;;;;;;3.73;0.70;;;5.40;99.90;;;;;;4772580;30;20199;-84
2024/01/04 06:45:56;;;;;;;1.03;0.50;;;5.40;99.90;;;;;;4772049;30;20675;-83
2024/01/04 06:48:22;;;;;;;1.23;0.50;;;5.30;99.90;;;;;;4772075;30;20230;-83
2024/01/04 06:50:49;;;;;;;0.83;0.40;;;5.30;99.90;;;;;;4788438;30;20282;-83
2024/01/04 06:53:16;;;;;;;1.43;0.60;;;5.40;99.90;;;;;;4772408;30;20253;-86
2024/01/04 06:55:42;;;;;;;1.40;0.57;;;5.40;99.90;;;;;;4774478;30;20281;-84
2024/01/04 06:58:09;;;;;;;2.80;0.50;;;5.40;99.90;;;;;;4791690;29;20395;-84
2024/01/04 07:00:35;;;;;;;0.70;0.43;;;5.30;99.90;;;;;;4771767;30;20251;-83
2024/01/04 07:03:02;;;;;;;1.50;0.50;;;5.40;99.90;;;;;;4772884;30;20188;-85
2024/01/04 07:05:28;;;;;;;0.80;0.43;;;5.40;99.90;;;;;;4772846;30;20191;-84
2024/01/04 07:07:54;;;;;;;1.97;0.50;;;5.30;99.90;;;;;;4772406;30;20242;-85
2024/01/04 07:10:19;;;;;;;2.07;0.60;;;5.40;99.90;;;;;;4772589;30;20196;-86
2024/01/04 07:12:46;;;;;;;0.70;0.50;;;5.30;99.90;;;;;;4765176;30;20648;-84
2024/01/04 07:15:12;;;;;;;1.20;0.60;;;5.40;99.90;;;;;;4766090;30;20682;-86
2024/01/04 07:17:39;;;;;;;0.60;0.43;;;5.30;99.90;;;;;;4772206;30;20196;-83
2024/01/04 07:20:06;;;;;;;1.00;0.60;;;5.30;99.90;;;;;;4772430;30;20211;-87
2024/01/04 07:22:32;;;;;;;3.53;0.70;;;5.20;99.90;;;;;;4772602;30;20228;-85
2024/01/04 07:24:58;;;;;;;0.80;0.60;;;5.20;99.90;;;;;;4765268;30;20227;-85
2024/01/04 07:27:24;;;;;;;1.83;0.67;;;5.20;99.90;;;;;;4772225;30;20227;-86
2024/01/04 07:29:50;;;;;;;2.47;0.63;;;5.30;99.90;;;;;;4771915;30;20602;-86
2024/01/04 07:32:18;;;;;;;2.87;0.70;;;5.30;99.90;;;;;;4771897;30;20226;-83
2024/01/04 07:34:44;;;;;;;3.13;0.60;;;5.20;99.90;;;;;;4772332;30;20699;-83
2024/01/04 07:37:13;;;;;;;1.07;0.50;;;5.30;99.90;;;;;;4773244;30;20191;-83
2024/01/04 07:39:40;;;;;;;0.97;0.60;;;5.20;99.90;;;;;;4772062;30;20223;-83
2024/01/04 07:42:06;;;;;;;2.03;0.60;;;5.20;99.90;;;;;;4772019;30;20259;-83
2024/01/04 07:44:33;;;;;;;1.77;0.93;;;5.20;99.90;;;;;;4771930;30;20204;-83
2024/01/04 07:47:01;;;;;;;1.63;0.73;;;5.20;99.90;;;;;;4771459;30;20256;-85
2024/01/04 07:49:27;;;;;;;2.27;0.80;;;5.10;99.90;;;;;;4772388;30;20231;-84
2024/01/04 07:51:53;;;;;;;2.13;0.90;;;5.00;99.90;;;;;;4773034;30;20203;-83
2024/01/04 07:54:19;;;;;;;0.77;0.53;;;5.00;99.90;;;;;;4771869;30;20225;-83
2024/01/04 07:56:45;;;;;;;2.67;1.00;;;4.90;99.90;;;;;;4771604;30;20289;-83
2024/01/04 07:59:14;;;;;;;2.80;0.87;;;4.90;99.90;;;;;;4771765;30;20200;-83
2024/01/04 08:01:39;;;;;;;1.63;0.60;;;4.90;99.90;;;;;;4771029;30;20250;-83
2024/01/04 08:04:06;;;;;;;1.03;0.50;;;4.80;99.90;;;;;;4771736;30;20284;-84
2024/01/04 08:06:31;;;;;;;0.50;0.40;;;4.60;99.90;;;;;;4770918;30;20199;-83
2024/01/04 08:08:57;;;;;;;0.63;0.30;;;4.50;99.90;;;;;;4770140;30;20232;-83
2024/01/04 08:11:23;;;;;;;0.40;0.40;;;4.40;99.90;;;;;;4766380;30;20192;-84
2024/01/04 08:13:51;;;;;;;0.53;0.40;;;4.20;99.90;;;;;;4771517;30;20226;-84
2024/01/04 08:16:18;;;;;;;1.00;0.40;;;4.20;99.90;;;;;;4771296;30;20248;-83
2024/01/04 08:18:43;;;;;;;0.57;0.40;;;4.20;99.90;;;;;;4767180;30;20192;-85
2024/01/04 08:21:10;;;;;;;0.40;0.37;;;4.10;99.90;;;;;;4771485;30;20651;-85
2024/01/04 08:23:37;;;;;;;0.50;0.50;;;4.10;99.90;;;;;;4771309;30;20199;-84
2024/01/04 08:26:05;;;;;;;0.70;0.40;;;4.00;99.90;;;;;;4771289;30;20211;-83
2024/01/04 08:28:31;;;;;;;1.43;0.50;;;4.00;99.90;;;;;;4771383;30;20667;-85
2024/01/04 08:30:57;;;;;;;0.60;0.50;;;3.90;99.90;;;;;;4771158;30;20253;-84
2024/01/04 08:33:24;;;;;;;0.67;0.50;;;3.80;99.90;;;;;;4764383;30;20192;-84
2024/01/04 08:35:50;;;;;;;0.73;0.50;;;3.80;99.90;;;;;;4771246;30;20188;-85
2024/01/04 08:38:15;;;;;;;0.60;0.50;;;3.80;99.90;;;;;;4763983;30;20333;-84
2024/01/04 08:40:42;;;;;;;2.00;0.63;;;3.80;99.90;;;;;;4764391;30;20196;-83
2024/01/04 08:43:08;;;;;;;1.97;0.50;;;3.70;99.90;;;;;;4763417;30;20200;-81
2024/01/04 08:45:34;;;;;;;0.90;0.60;;;3.70;99.90;;;;;;4771113;30;20518;-83
2024/01/04 08:48:00;;;;;;;1.10;0.70;;;3.70;99.90;;;;;;4763763;30;20273;-83
2024/01/04 08:50:25;;;;;;;2.30;0.73;;;3.70;99.90;;;;;;4759113;30;20193;-84
2024/01/04 08:52:51;;;;;;;1.40;0.63;;;3.70;99.90;;;;;;4760949;30;20516;-83
2024/01/04 08:55:20;;;;;;;0.90;0.60;;;3.70;99.90;;;;;;4764638;30;20249;-83
2024/01/04 08:57:46;;;;;;;2.60;1.00;;;3.80;99.90;;;;;;4770755;30;20202;-84
2024/01/04 09:00:14;;;;;;;0.87;0.73;;;3.80;99.90;;;;;;4766544;30;20244;-85
2024/01/04 09:02:42;;;;;;;0.77;0.73;;;3.80;99.90;;;;;;4753194;30;20250;-83
2024/01/04 09:05:09;;;;;;;2.10;0.70;;;3.70;99.90;;;;;;4762963;30;20576;-82
2024/01/04 09:07:35;;;;;;;1.53;0.80;;;3.80;99.90;;;;;;4763478;30;20192;-83
2024/01/04 09:10:00;;;;;;;1.50;0.87;;;3.80;99.90;;;;;;4768277;30;20654;-82
2024/01/04 09:12:29;;;;;;;2.47;0.97;;;3.90;99.90;;;;;;4760603;30;20254;-84
2024/01/04 09:14:55;;;;;;;3.07;1.10;;;3.90;99.90;;;;;;4769084;30;20198;-83
2024/01/04 09:17:21;;;;;;;2.30;1.00;;;3.90;99.90;;;;;;4759553;30;20537;-85
2024/01/04 09:19:47;;;;;;;1.67;0.90;;;3.80;99.90;;;;;;4768244;30;20192;-85
2024/01/04 09:22:13;;;;;;;0.87;0.83;;;3.80;99.90;;;;;;4763639;30;20199;-86
2024/01/04 09:24:39;;;;;;;2.00;1.10;;;3.80;99.90;;;;;;4763369;30;20572;-83
2024/01/04 09:27:05;;;;;;;3.33;1.23;;;3.80;99.90;;;;;;4767692;30;20204;-87
2024/01/04 09:29:31;;;;;;;2.80;1.10;;;3.80;99.90;;;;;;4758379;30;20223;-83
2024/01/04 09:31:57;;;;;;;2.40;0.90;;;3.80;99.90;;;;;;4769377;30;20640;-85
2024/01/04 09:34:24;;;;;;;2.57;1.27;;;3.70;99.90;;;;;;4765431;30;20208;-83
2024/01/04 09:36:50;;;;;;;1.40;0.97;;;3.70;99.90;;;;;;4766942;30;20277;-82
2024/01/04 09:39:17;;;;;;;2.40;1.00;;;3.70;99.90;;;;;;4753291;30;20619;-83
2024/01/04 09:41:50;;;;;;;1.17;0.80;;;3.70;99.90;;;;;;4767809;30;20188;-83
2024/01/04 09:44:16;;;;;;;1.33;0.90;;;3.80;99.90;;;;;;4769124;30;20601;-83
2024/01/04 09:46:42;;;;;;;1.87;1.20;;;3.80;99.90;;;;;;4769507;30;20211;-84
2024/01/04 09:49:09;;;;;;;1.40;1.07;;;3.80;99.90;;;;;;4769720;30;20318;-83
2024/01/04 09:51:38;;;;;;;10.50;3.90;;;3.80;99.90;;;;;;4769620;30;20199;-83
2024/01/04 09:54:08;;;;;;;5.57;3.10;;;3.70;99.90;;;;;;4769736;30;20200;-85
2024/01/04 09:56:38;;;;;;;1.33;1.10;;;3.80;99.90;;;;;;4769958;30;20218;-83
2024/01/04 09:59:03;;;;;;;2.93;1.10;;;3.80;99.90;;;;;;4769793;30;20196;-85
2024/01/04 10:01:34;;;;;;;1.53;1.00;;;3.80;99.90;;;;;;4768857;30;20244;-86
2024/01/04 10:04:08;;;;;;;2.10;1.40;;;3.80;99.90;;;;;;4767905;30;20606;-82
2024/01/04 10:06:36;;;;;;;2.13;1.00;;;3.90;99.90;;;;;;4764935;30;20195;-83
2024/01/04 10:09:22;;;;;;;1.70;1.03;;;3.90;99.90;;;;;;4768035;30;20224;-83
2024/01/04 10:12:05;;;;;;;1.30;1.00;;;3.90;99.90;;;;;;4768691;30;20636;-81
2024/01/04 10:14:32;;;;;;;1.87;1.30;;;4.00;99.90;;;;;;4767634;30;20198;-82
2024/01/04 10:16:59;;;;;;;1.00;0.83;;;3.90;99.90;;;;;;4768998;30;20200;-83
2024/01/04 10:19:29;;;;;;;1.57;1.00;;;3.90;99.90;;;;;;4769537;30;20253;-83
2024/01/04 10:22:01;;;;;;;1.60;0.70;;;4.00;99.90;;;;;;4769253;30;20195;-83
2024/01/04 10:24:29;;;;;;;2.33;0.87;;;4.00;99.90;;;;;;4769410;30;20335;-83
2024/01/04 10:26:57;;;;;;;1.67;0.90;;;4.00;99.90;;;;;;4768639;30;20204;-82
2024/01/04 10:29:24;;;;;;;2.40;1.30;;;4.00;99.90;;;;;;4769389;30;20654;-83
2024/01/04 10:32:04;;;;;;;3.10;1.33;;;4.00;99.90;;;;;;4772046;30;20191;-85
2024/01/04 10:34:37;;;;;;;4.37;1.10;;;4.00;99.90;;;;;;4772814;30;20195;-84
2024/01/04 10:37:13;;;;;;;2.17;1.03;;;4.00;99.90;;;;;;4774008;30;20278;-84
2024/01/04 10:39:42;;;;;;;2.90;1.07;;;3.90;99.90;;;;;;4772852;30;20195;-83
2024/01/04 10:42:09;;;;;;;3.07;1.27;;;4.00;99.90;;;;;;4772740;30;20199;-84
2024/01/04 10:44:35;;;;;;;3.70;1.00;;;4.00;99.90;;;;;;4772649;30;20206;-83
2024/01/04 10:47:02;;;;;;;1.63;0.70;;;4.00;99.90;;;;;;4772220;30;20188;-81
2024/01/04 10:49:28;;;;;;;1.80;1.00;;;4.00;99.90;;;;;;4772726;30;20227;-83
2024/01/04 10:52:00;;;;;;;0.87;0.80;;;4.00;99.90;;;;;;4772559;30;20654;-83
2024/01/04 10:54:35;;;;;;;2.43;1.00;;;4.00;99.90;;;;;;4772466;30;20199;-83
2024/01/04 10:57:02;;;;;;;1.50;1.10;;;4.00;99.90;;;;;;4772395;30;20191;-83
2024/01/04 10:59:29;;;;;;;2.00;1.00;;;4.00;99.90;;;;;;4773753;30;20614;-83
2024/01/04 11:01:57;;;;;;;0.80;0.80;;;4.00;99.90;;;;;;4790764;30;20663;-83
2024/01/04 11:04:24;;;;;;;1.37;1.00;;;4.10;99.90;;;;;;4775490;30;20509;-83
2024/01/04 11:06:52;;;;;;;4.63;1.17;;;4.00;99.90;;;;;;4791207;30;20609;-84
2024/01/04 11:09:22;;;;;;;1.77;1.20;;;4.00;99.90;;;;;;4791679;29;20287;-83
2024/01/04 11:11:52;;;;;;;2.63;0.90;;;4.00;99.90;;;;;;4770266;30;20199;-84
2024/01/04 11:14:20;;;;;;;0.93;0.70;;;3.90;99.90;;;;;;4774667;30;20210;-84
2024/01/04 11:17:04;;;;;;;1.53;0.90;;;3.90;99.90;;;;;;4773906;30;20200;-83
2024/01/04 11:19:33;;;;;;;1.17;0.93;;;3.80;99.90;;;;;;4775101;30;20206;-84
2024/01/04 11:22:26;;;;;;;1.20;0.87;;;3.90;99.90;;;;;;4774749;30;20624;-83
2024/01/04 11:25:24;;;;;;;1.37;1.07;;;3.80;99.90;;;;;;4774733;30;20230;-84
2024/01/04 11:27:50;;;;;;;2.00;1.00;;;3.80;99.90;;;;;;4790731;30;20298;-84
2024/01/04 11:30:17;;;;;;;2.70;0.90;;;3.80;99.90;;;;;;4790752;30;20618;-85
2024/01/04 11:32:45;;;;;;;2.70;1.10;;;3.90;99.90;;;;;;4773248;30;20646;-84
2024/01/04 11:35:11;;;;;;;1.27;1.00;;;3.90;99.90;;;;;;4759300;30;20654;-83
2024/01/04 11:37:37;;;;;;;1.80;1.07;;;3.90;99.90;;;;;;4773791;30;20195;-83
2024/01/04 11:40:07;;;;;;;1.80;1.00;;;4.00;99.90;;;;;;4773618;29;20214;-84
2024/01/04 11:42:38;;;;;;;1.53;0.70;;;4.00;99.90;;;;;;4774114;30;20199;-84
2024/01/04 11:45:15;;;;;;;1.70;0.90;;;4.00;99.90;;;;;;4789848;30;20259;-83
2024/01/04 11:47:45;;;;;;;2.27;0.80;;;4.00;99.90;;;;;;4766793;30;20208;-82
2024/01/04 11:50:24;;;;;;;2.60;0.80;;;4.00;99.90;;;;;;4759260;30;20266;-83
2024/01/04 11:52:51;;;;;;;1.87;1.00;;;4.00;99.90;;;;;;4773806;30;20706;-84
2024/01/04 11:55:26;;;;;;;1.90;1.10;;;3.90;99.90;;;;;;4790203;30;20191;-87
2024/01/04 11:58:12;;;;;;;1.10;1.00;;;3.70;99.90;;;;;;4774038;30;20206;-82
2024/01/04 12:00:41;;;;;;;1.40;1.00;;;3.50;99.90;;;;;;4773238;30;20300;-83
2024/01/04 12:03:20;;;;;;;2.87;1.17;;;3.30;99.90;;;;;;4773100;30;20247;-82
2024/01/04 12:05:47;;;;;;;2.00;1.10;;;3.30;99.90;;;;;;4773806;30;20209;-83
2024/01/04 12:08:32;;;;;;;1.90;1.20;;;3.30;99.90;;;;;;4774180;30;20599;-83
2024/01/04 12:11:04;;;;;;;1.50;1.27;;;3.30;99.90;;;;;;4766755;30;20628;-84
2024/01/04 12:13:30;;;;;;;2.50;1.17;;;3.30;99.90;;;;;;4774199;30;20267;-83
2024/01/04 12:15:56;;;;;;;1.07;0.97;;;3.30;99.90;;;;;;4772593;30;20532;-84
2024/01/04 12:18:22;;;;;;;4.10;1.30;;;3.30;99.90;;;;;;4767928;30;20195;-83
2024/01/04 12:20:49;;;;;;;1.50;1.30;;;3.30;99.90;;;;;;4766989;30;20204;-83
2024/01/04 12:23:15;;;;;;;2.67;1.30;;;3.30;99.90;;;;;;4773786;30;20654;-84
2024/01/04 12:25:43;;;;;;;2.87;1.43;;;3.30;99.90;;;;;;4783127;29;20198;-83
2024/01/04 12:28:11;;;;;;;2.63;1.20;;;3.20;99.90;;;;;;4772604;30;20310;-85
2024/01/04 12:30:37;;;;;;;1.33;1.20;;;3.20;99.90;;;;;;4773260;30;20201;-84
2024/01/04 12:33:04;;;;;;;2.00;1.30;;;3.30;99.90;;;;;;4773409;30;20213;-85
2024/01/04 12:35:30;;;;;;;3.97;1.50;;;3.30;99.90;;;;;;4773741;30;20616;-84
2024/01/04 12:38:06;;;;;;;2.67;1.53;;;3.30;99.90;;;;;;4774000;30;20199;-85
2024/01/04 12:40:42;;;;;;;2.73;1.50;;;3.40;99.90;;;;;;4773880;30;20234;-84
2024/01/04 12:43:10;;;;;;;1.60;1.30;;;3.30;99.90;;;;;;4770844;30;20195;-83
2024/01/04 12:45:36;;;;;;;2.53;1.50;;;3.30;99.90;;;;;;4769331;30;20286;-83
2024/01/04 12:48:07;;;;;;;2.20;1.27;;;3.40;99.90;;;;;;4772940;30;20851;-84
2024/01/04 12:50:37;;;;;;;1.17;1.00;;;3.30;99.90;;;;;;4773423;30;20225;-83
2024/01/04 12:53:05;;;;;;;2.20;1.30;;;3.30;99.90;;;;;;4772531;30;20215;-84
2024/01/04 12:55:34;;;;;;;1.93;1.10;;;3.20;99.90;;;;;;4773337;30;20644;-84
2024/01/04 12:58:00;;;;;;;1.43;1.03;;;3.20;99.90;;;;;;4772843;30;20199;-84